Time;durP1;ratioP1;P1;durP2;ratioP2;P2;SDS_P1;SDS_P2;PMS_P1;PMS_P2;Temp;Humidity;BMP_temperature;BMP_pressure;BME280_temperature;BME280_humidity;BME280_pressure;Samples;Min_cycle;Max_cycle;Signal;HPM_P1;HPM_P2
2023/06/07 00:01:50;;;;;;;3.37;2.70;;;25.90;50.10;;;;;;5068376;28;20202;-45
2023/06/07 00:04:21;;;;;;;3.03;2.70;;;25.90;50.20;;;;;;5043495;28;20271;-45
2023/06/07 00:07:00;;;;;;;2.90;2.60;;;25.90;50.10;;;;;;5066448;28;20208;-44
2023/06/07 00:09:34;;;;;;;4.40;3.00;;;25.90;50.10;;;;;;5042778;28;20869;-44
2023/06/07 00:12:06;;;;;;;4.53;3.10;;;25.80;50.10;;;;;;5068606;28;20600;-44
2023/06/07 00:14:36;;;;;;;3.33;2.60;;;25.80;50.00;;;;;;5053329;28;20546;-45
2023/06/07 00:17:08;;;;;;;3.03;2.70;;;25.80;50.00;;;;;;5046841;28;20307;-44
2023/06/07 00:19:39;;;;;;;3.57;2.90;;;25.80;50.10;;;;;;5049512;28;20252;-45
2023/06/07 00:22:15;;;;;;;5.10;3.37;;;25.80;50.10;;;;;;5068389;28;20190;-45
2023/06/07 00:24:42;;;;;;;4.93;3.03;;;25.80;50.00;;;;;;5031153;28;20630;-45
2023/06/07 00:27:27;;;;;;;3.37;2.77;;;25.80;50.10;;;;;;5062058;28;20202;-44
2023/06/07 00:30:03;;;;;;;3.00;2.70;;;25.70;50.10;;;;;;5068056;28;20642;-44
2023/06/07 00:32:34;;;;;;;3.37;2.77;;;25.70;50.10;;;;;;5048408;28;20699;-45
2023/06/07 00:35:07;;;;;;;3.33;2.60;;;25.70;50.10;;;;;;5063883;28;20200;-45
2023/06/07 00:37:37;;;;;;;3.07;2.77;;;25.70;50.10;;;;;;5060634;28;20209;-45
2023/06/07 00:40:10;;;;;;;2.90;2.57;;;25.70;50.10;;;;;;5059119;28;20198;-44
2023/06/07 00:42:43;;;;;;;3.23;2.77;;;25.70;50.20;;;;;;5066081;28;20284;-45
2023/06/07 00:45:14;;;;;;;3.13;2.80;;;25.60;50.10;;;;;;5068933;28;20244;-45
2023/06/07 00:47:44;;;;;;;2.87;2.60;;;25.60;50.20;;;;;;5072943;28;20245;-44
2023/06/07 00:50:12;;;;;;;3.37;3.07;;;25.60;50.20;;;;;;5069712;28;20202;-44
2023/06/07 00:52:45;;;;;;;2.87;2.57;;;25.60;50.20;;;;;;5077560;28;20273;-46
2023/06/07 00:55:19;;;;;;;4.53;2.50;;;25.60;50.20;;;;;;5072836;28;20225;-45
2023/06/07 00:57:50;;;;;;;3.77;3.00;;;25.60;50.20;;;;;;5068815;28;20595;-45
2023/06/07 01:00:21;;;;;;;2.93;2.70;;;25.60;50.20;;;;;;5055866;28;20202;-45
2023/06/07 01:02:52;;;;;;;3.87;3.13;;;25.60;50.20;;;;;;5035161;28;20564;-45
2023/06/07 01:05:23;;;;;;;3.67;2.77;;;25.60;50.30;;;;;;5053661;28;20233;-44
2023/06/07 01:07:54;;;;;;;3.60;3.30;;;25.60;50.20;;;;;;5072704;28;20263;-44
2023/06/07 01:10:23;;;;;;;3.87;2.70;;;25.50;50.10;;;;;;5053431;28;20258;-45
2023/06/07 01:13:02;;;;;;;3.13;2.83;;;25.50;50.20;;;;;;5052446;28;20571;-44
2023/06/07 01:15:32;;;;;;;3.30;3.00;;;25.50;50.20;;;;;;5072018;28;20229;-45
2023/06/07 01:18:01;;;;;;;3.63;2.90;;;25.50;50.20;;;;;;5050080;28;20229;-44
2023/06/07 01:20:35;;;;;;;4.47;3.40;;;25.50;50.20;;;;;;5036247;28;20209;-44
2023/06/07 01:23:09;;;;;;;3.10;2.80;;;25.50;50.20;;;;;;5043217;28;20612;-44
2023/06/07 01:25:50;;;;;;;4.00;2.53;;;25.50;50.30;;;;;;5038247;28;20317;-44
2023/06/07 01:28:20;;;;;;;3.97;3.00;;;25.40;50.20;;;;;;5071097;28;20195;-44
2023/06/07 01:30:53;;;;;;;5.53;2.80;;;25.40;50.20;;;;;;5070601;28;20213;-44
2023/06/07 01:33:39;;;;;;;3.33;2.77;;;25.40;50.20;;;;;;5054929;28;20608;-45
2023/06/07 01:36:10;;;;;;;3.23;2.70;;;25.40;50.20;;;;;;5072227;28;20209;-45
2023/06/07 01:39:03;;;;;;;3.77;2.67;;;25.40;50.20;;;;;;5066535;28;20271;-45
2023/06/07 01:41:56;;;;;;;3.50;2.90;;;25.40;50.20;;;;;;5062040;28;20208;-45
2023/06/07 01:44:25;;;;;;;3.03;2.57;;;25.40;50.20;;;;;;5053310;28;20190;-44
2023/06/07 01:46:56;;;;;;;4.07;2.80;;;25.40;50.20;;;;;;5070638;28;20236;-44
2023/06/07 01:49:28;;;;;;;3.80;3.03;;;25.30;50.10;;;;;;5069547;28;20244;-44
2023/06/07 01:51:59;;;;;;;5.60;2.70;;;25.30;50.00;;;;;;5064486;28;20247;-44
2023/06/07 01:54:30;;;;;;;5.20;3.23;;;25.30;50.10;;;;;;5063949;28;20634;-44
2023/06/07 01:57:38;;;;;;;3.07;2.50;;;25.30;50.10;;;;;;5048600;28;20230;-44
2023/06/07 02:00:42;;;;;;;3.53;3.00;;;25.30;50.10;;;;;;5067880;28;20866;-45
2023/06/07 02:03:39;;;;;;;3.80;3.10;;;25.30;50.10;;;;;;5069797;28;20190;-44
2023/06/07 02:06:17;;;;;;;3.43;2.73;;;25.20;50.00;;;;;;5045696;28;20213;-44
2023/06/07 02:08:50;;;;;;;3.87;3.00;;;25.20;50.20;;;;;;5039750;28;20396;-45
2023/06/07 02:11:24;;;;;;;4.23;2.67;;;25.20;50.10;;;;;;5038687;28;20875;-44
2023/06/07 02:13:55;;;;;;;3.00;2.70;;;25.20;50.00;;;;;;5049133;28;20280;-44
2023/06/07 02:16:36;;;;;;;3.30;2.90;;;25.20;50.70;;;;;;5038031;28;20215;-45
2023/06/07 02:19:11;;;;;;;4.33;3.30;;;25.20;50.00;;;;;;5047935;28;20254;-45
2023/06/07 02:21:39;;;;;;;3.57;2.73;;;25.20;50.00;;;;;;5067635;28;20185;-44
2023/06/07 02:24:10;;;;;;;3.17;2.80;;;25.20;50.10;;;;;;5046900;28;20198;-44
2023/06/07 02:26:42;;;;;;;3.43;2.60;;;25.20;50.10;;;;;;5063142;28;20697;-44
2023/06/07 02:29:14;;;;;;;3.70;3.03;;;25.20;50.10;;;;;;5071378;28;20661;-44
2023/06/07 02:31:47;;;;;;;3.63;3.00;;;25.20;50.10;;;;;;5061090;28;20564;-45
2023/06/07 02:34:18;;;;;;;3.33;2.70;;;25.10;50.10;;;;;;5034641;28;20197;-45
2023/06/07 02:36:51;;;;;;;4.83;3.13;;;25.10;50.00;;;;;;5063219;28;20221;-45
2023/06/07 02:39:21;;;;;;;2.50;2.30;;;25.10;50.00;;;;;;5071583;28;20193;-44
2023/06/07 02:41:52;;;;;;;2.93;2.63;;;25.10;50.10;;;;;;5070215;28;20197;-44
2023/06/07 02:44:19;;;;;;;3.07;2.77;;;25.10;50.00;;;;;;5070927;28;20198;-44
2023/06/07 02:46:48;;;;;;;4.03;3.00;;;25.10;50.10;;;;;;5064397;28;20197;-45
2023/06/07 02:49:31;;;;;;;3.40;2.90;;;25.10;50.00;;;;;;5067945;28;20817;-44
2023/06/07 02:52:02;;;;;;;3.43;3.00;;;25.10;50.10;;;;;;5070574;28;20197;-45
2023/06/07 02:54:30;;;;;;;3.80;2.83;;;25.00;50.00;;;;;;5065413;28;20194;-44
2023/06/07 02:57:01;;;;;;;3.67;3.13;;;25.00;50.00;;;;;;5070355;28;20202;-45
2023/06/07 02:59:31;;;;;;;4.37;2.73;;;25.00;50.00;;;;;;5071354;28;20640;-45
2023/06/07 03:01:59;;;;;;;3.23;2.93;;;25.00;50.00;;;;;;5069125;28;20208;-44
2023/06/07 03:04:30;;;;;;;3.87;3.30;;;25.00;50.00;;;;;;5069271;28;20186;-44
2023/06/07 03:07:03;;;;;;;3.17;2.80;;;25.00;50.10;;;;;;5063599;28;20556;-44
2023/06/07 03:09:32;;;;;;;3.50;2.97;;;25.00;50.10;;;;;;5070673;28;20228;-44
2023/06/07 03:12:00;;;;;;;3.30;2.70;;;25.00;50.00;;;;;;5071860;28;20190;-45
2023/06/07 03:14:30;;;;;;;3.87;2.90;;;25.00;50.00;;;;;;5068690;28;20214;-44
2023/06/07 03:17:04;;;;;;;3.00;2.70;;;25.00;50.00;;;;;;5070798;28;20217;-44
2023/06/07 03:19:36;;;;;;;3.20;2.90;;;24.90;50.00;;;;;;5070007;28;20198;-45
2023/06/07 03:22:08;;;;;;;4.57;3.00;;;25.00;50.10;;;;;;5070294;28;20216;-45
2023/06/07 03:24:38;;;;;;;3.00;2.63;;;24.90;50.00;;;;;;5042836;28;20204;-44
2023/06/07 03:27:09;;;;;;;3.90;3.10;;;24.90;50.00;;;;;;5069242;28;20198;-45
2023/06/07 03:29:36;;;;;;;3.30;2.83;;;24.90;50.00;;;;;;5068918;28;20196;-44
2023/06/07 03:32:07;;;;;;;3.90;3.07;;;24.90;50.00;;;;;;5063541;28;20676;-45
2023/06/07 03:34:43;;;;;;;3.33;2.97;;;24.90;50.00;;;;;;5045956;28;20213;-44
2023/06/07 03:37:14;;;;;;;4.00;3.00;;;24.90;50.10;;;;;;5067451;28;20252;-44
2023/06/07 03:39:45;;;;;;;3.40;2.70;;;24.90;50.20;;;;;;5069548;28;20193;-44
2023/06/07 03:42:15;;;;;;;3.40;3.00;;;24.80;50.10;;;;;;5068771;28;20268;-44
2023/06/07 03:44:48;;;;;;;4.60;2.83;;;24.80;50.10;;;;;;5072091;28;20950;-45
2023/06/07 03:47:24;;;;;;;3.30;3.00;;;24.80;50.20;;;;;;5072370;28;20200;-45
2023/06/07 03:49:58;;;;;;;3.97;3.20;;;24.80;50.20;;;;;;5064233;28;20694;-44
2023/06/07 03:52:31;;;;;;;3.70;3.00;;;24.80;50.20;;;;;;5058755;28;20561;-44
2023/06/07 03:55:02;;;;;;;4.17;2.97;;;24.80;50.20;;;;;;5062780;28;20198;-44
2023/06/07 03:57:34;;;;;;;4.77;3.20;;;24.80;50.20;;;;;;5065668;28;20686;-44
2023/06/07 04:00:09;;;;;;;3.67;2.97;;;24.80;50.30;;;;;;5071484;28;20282;-45
2023/06/07 04:02:42;;;;;;;3.30;3.00;;;24.80;50.30;;;;;;5064330;28;20209;-45
2023/06/07 04:05:13;;;;;;;3.97;2.73;;;24.70;50.20;;;;;;5066043;28;20195;-45
2023/06/07 04:07:47;;;;;;;4.13;2.90;;;24.70;50.20;;;;;;5052625;28;20201;-45
2023/06/07 04:10:17;;;;;;;3.83;3.20;;;24.70;50.20;;;;;;5069834;28;20668;-45
2023/06/07 04:12:50;;;;;;;3.13;2.70;;;24.70;50.20;;;;;;5059286;28;20330;-44
2023/06/07 04:15:22;;;;;;;3.37;3.07;;;24.70;50.20;;;;;;5060797;28;20190;-43
2023/06/07 04:18:06;;;;;;;3.83;3.17;;;24.70;50.20;;;;;;5068351;28;20630;-46
2023/06/07 04:20:44;;;;;;;3.40;2.70;;;24.70;50.20;;;;;;5066722;28;20228;-44
2023/06/07 04:23:26;;;;;;;4.60;3.33;;;24.80;50.20;;;;;;5068582;28;20205;-44
2023/06/07 04:25:58;;;;;;;4.33;2.90;;;24.70;50.20;;;;;;5045876;28;20669;-44
2023/06/07 04:28:30;;;;;;;3.90;3.47;;;24.70;50.10;;;;;;5068207;28;20202;-45
2023/06/07 04:31:00;;;;;;;4.03;2.83;;;24.70;50.20;;;;;;5051565;28;20255;-45
2023/06/07 04:33:32;;;;;;;3.07;2.70;;;24.70;50.10;;;;;;5068648;28;20189;-44
2023/06/07 04:36:08;;;;;;;4.30;3.10;;;24.70;50.10;;;;;;5068448;28;20267;-45
2023/06/07 04:38:37;;;;;;;3.27;3.00;;;24.70;50.10;;;;;;5065619;28;20209;-44
2023/06/07 04:41:32;;;;;;;4.30;3.20;;;24.60;50.00;;;;;;5063997;28;20536;-44
2023/06/07 04:44:04;;;;;;;3.90;3.23;;;24.60;50.00;;;;;;5068115;28;20241;-44
2023/06/07 04:46:33;;;;;;;4.47;3.07;;;24.60;50.60;;;;;;5066278;28;20753;-44
2023/06/07 04:49:05;;;;;;;5.20;2.93;;;24.60;49.90;;;;;;5058603;28;20249;-44
2023/06/07 04:51:36;;;;;;;3.70;3.13;;;24.60;50.00;;;;;;5068483;28;20202;-44
2023/06/07 04:54:04;;;;;;;4.17;3.20;;;24.70;50.00;;;;;;5069985;28;20322;-45
2023/06/07 04:56:36;;;;;;;3.50;3.10;;;24.60;50.00;;;;;;5070272;28;20213;-44
2023/06/07 04:59:04;;;;;;;3.03;2.67;;;24.60;49.90;;;;;;5074681;28;20213;-45
2023/06/07 05:01:33;;;;;;;3.57;2.67;;;24.60;49.90;;;;;;5070497;28;20206;-44
2023/06/07 05:04:04;;;;;;;3.33;3.03;;;24.60;49.90;;;;;;5071688;28;20206;-44
2023/06/07 05:06:37;;;;;;;3.93;2.80;;;24.60;49.90;;;;;;5066172;28;20196;-44
2023/06/07 05:09:08;;;;;;;3.50;2.77;;;24.60;49.90;;;;;;5068493;28;20209;-45
2023/06/07 05:11:37;;;;;;;3.80;3.10;;;24.50;49.90;;;;;;5051809;28;20722;-45
2023/06/07 05:14:06;;;;;;;3.23;2.67;;;24.60;49.90;;;;;;5062671;28;20222;-45
2023/06/07 05:16:39;;;;;;;3.70;3.17;;;24.60;49.90;;;;;;5066959;28;20217;-44
2023/06/07 05:19:10;;;;;;;5.50;3.10;;;24.50;49.80;;;;;;5069510;28;20618;-44
2023/06/07 05:21:42;;;;;;;5.07;3.40;;;24.50;49.80;;;;;;5049513;28;20201;-45
2023/06/07 05:24:12;;;;;;;3.27;2.97;;;24.50;49.80;;;;;;5069300;28;20642;-46
2023/06/07 05:26:44;;;;;;;4.47;2.87;;;24.50;49.80;;;;;;5065017;28;20214;-44
2023/06/07 05:29:15;;;;;;;3.47;2.73;;;24.50;49.80;;;;;;5071926;28;20205;-45
2023/06/07 05:31:47;;;;;;;3.63;3.07;;;24.50;49.80;;;;;;5070735;28;20225;-44
2023/06/07 05:34:19;;;;;;;3.83;2.87;;;24.60;49.80;;;;;;5057261;28;20220;-45
2023/06/07 05:36:57;;;;;;;2.93;2.70;;;24.50;49.80;;;;;;5069584;28;20280;-44
2023/06/07 05:39:29;;;;;;;3.97;3.00;;;24.50;49.80;;;;;;5067589;28;20210;-45
2023/06/07 05:42:03;;;;;;;4.30;2.90;;;24.50;49.80;;;;;;5073135;28;20244;-44
2023/06/07 05:44:34;;;;;;;3.80;3.00;;;24.50;49.90;;;;;;5068361;28;20197;-44
2023/06/07 05:47:06;;;;;;;4.30;3.10;;;24.50;49.90;;;;;;5073259;28;20247;-45
2023/06/07 05:49:37;;;;;;;3.60;3.17;;;24.50;49.90;;;;;;5050124;28;20207;-45
2023/06/07 05:52:07;;;;;;;3.07;2.60;;;24.50;50.00;;;;;;5037983;28;20201;-45
2023/06/07 05:54:47;;;;;;;3.97;3.17;;;24.50;50.00;;;;;;5069652;28;20200;-45
2023/06/07 05:57:32;;;;;;;5.50;3.10;;;24.50;50.00;;;;;;5062566;28;20246;-45
2023/06/07 06:00:18;;;;;;;5.37;2.93;;;24.50;50.00;;;;;;5055654;28;20316;-45
2023/06/07 06:02:49;;;;;;;5.60;3.17;;;24.50;50.00;;;;;;5066439;28;20218;-44
2023/06/07 06:05:27;;;;;;;5.97;3.43;;;24.50;50.00;;;;;;5066322;28;20198;-46
2023/06/07 06:07:57;;;;;;;6.80;3.10;;;24.50;49.90;;;;;;5060301;28;20232;-45
2023/06/07 06:10:25;;;;;;;5.13;2.97;;;24.40;49.80;;;;;;5054569;28;20725;-45
2023/06/07 06:13:08;;;;;;;4.70;3.17;;;24.50;49.90;;;;;;5072153;28;20283;-45
2023/06/07 06:15:40;;;;;;;3.90;3.00;;;24.50;49.80;;;;;;5074045;28;20193;-43
2023/06/07 06:18:10;;;;;;;5.10;3.20;;;24.50;49.80;;;;;;5060540;28;20218;-45
2023/06/07 06:20:40;;;;;;;4.00;3.13;;;24.50;49.90;;;;;;5065375;28;20196;-45
2023/06/07 06:23:11;;;;;;;4.10;3.10;;;24.40;49.60;;;;;;5068980;28;20189;-46
2023/06/07 06:25:43;;;;;;;5.87;2.93;;;24.50;49.80;;;;;;5055567;28;20221;-44
2023/06/07 06:28:11;;;;;;;4.80;3.20;;;24.40;50.30;;;;;;5043483;28;20303;-44
2023/06/07 06:30:39;;;;;;;4.90;3.27;;;24.50;49.70;;;;;;5063242;28;20198;-44
2023/06/07 06:33:12;;;;;;;6.37;3.63;;;24.40;49.60;;;;;;5070143;28;20301;-45
2023/06/07 06:35:42;;;;;;;5.57;3.20;;;24.40;49.50;;;;;;5067935;28;20623;-44
2023/06/07 06:38:11;;;;;;;7.70;3.20;;;24.50;49.60;;;;;;5063246;28;20241;-44
2023/06/07 06:40:39;;;;;;;5.83;2.77;;;24.40;49.50;;;;;;5065183;28;20210;-44
2023/06/07 06:43:11;;;;;;;6.37;3.50;;;24.40;49.40;;;;;;5024316;28;20334;-45
2023/06/07 06:45:40;;;;;;;4.70;3.40;;;24.50;49.50;;;;;;5021938;28;20207;-45
2023/06/07 06:48:22;;;;;;;5.33;3.43;;;24.50;49.60;;;;;;5041338;28;20281;-44
2023/06/07 06:50:51;;;;;;;19.40;6.00;;;24.40;49.80;;;;;;5031625;28;20288;-44
2023/06/07 06:53:21;;;;;;;62.83;14.57;;;24.50;50.00;;;;;;5036140;28;20186;-44
2023/06/07 06:55:52;;;;;;;52.63;15.40;;;24.50;50.60;;;;;;5048436;28;20189;-44
2023/06/07 06:58:22;;;;;;;53.00;12.67;;;24.60;50.60;;;;;;5042231;28;20260;-44
2023/06/07 07:00:52;;;;;;;30.63;10.77;;;24.70;50.00;;;;;;5041889;28;20594;-44
2023/06/07 07:03:21;;;;;;;30.40;10.53;;;24.80;49.30;;;;;;5034739;28;20217;-45
2023/06/07 07:05:55;;;;;;;24.23;8.67;;;24.90;50.00;;;;;;5047074;28;20197;-44
2023/06/07 07:08:25;;;;;;;26.03;9.13;;;24.90;49.20;;;;;;5042494;28;20309;-45
2023/06/07 07:10:55;;;;;;;27.37;9.93;;;24.90;49.30;;;;;;5040146;28;20190;-45
2023/06/07 07:13:25;;;;;;;29.87;9.77;;;25.00;49.30;;;;;;5035101;28;20226;-45
2023/06/07 07:15:57;;;;;;;22.87;8.23;;;25.00;49.10;;;;;;5046295;28;20206;-45
2023/06/07 07:18:28;;;;;;;15.37;6.90;;;25.10;49.10;;;;;;5044392;28;20222;-45
2023/06/07 07:21:00;;;;;;;16.40;7.07;;;25.10;49.50;;;;;;5042647;28;20202;-44
2023/06/07 07:23:30;;;;;;;19.43;7.37;;;25.10;48.90;;;;;;5045521;28;20218;-44
2023/06/07 07:26:03;;;;;;;21.40;7.47;;;25.20;48.80;;;;;;5044390;28;20222;-45
2023/06/07 07:28:36;;;;;;;21.77;7.47;;;25.30;48.50;;;;;;5044263;28;20202;-45
2023/06/07 07:31:10;;;;;;;12.33;5.63;;;25.40;48.50;;;;;;5038755;28;20213;-44
2023/06/07 07:33:40;;;;;;;14.17;5.80;;;25.40;48.00;;;;;;5042633;28;20539;-45
2023/06/07 07:36:11;;;;;;;11.03;5.43;;;25.40;47.60;;;;;;5045544;28;20195;-44
2023/06/07 07:38:45;;;;;;;12.03;5.60;;;25.50;47.80;;;;;;5042158;28;20221;-44
2023/06/07 07:41:16;;;;;;;11.93;5.73;;;25.60;47.70;;;;;;5046873;28;20198;-45
2023/06/07 07:43:48;;;;;;;11.97;5.73;;;25.60;47.90;;;;;;5054487;28;20570;-45
2023/06/07 07:46:16;;;;;;;8.83;4.90;;;25.60;47.50;;;;;;5041027;28;20199;-46
2023/06/07 07:48:47;;;;;;;9.33;4.73;;;25.70;47.30;;;;;;5063114;28;20676;-46
2023/06/07 07:51:17;;;;;;;9.07;4.57;;;25.80;47.30;;;;;;5059725;28;20755;-44
2023/06/07 07:53:47;;;;;;;9.37;4.30;;;25.80;47.40;;;;;;5054327;28;20206;-44
2023/06/07 07:56:16;;;;;;;8.87;4.50;;;25.80;47.30;;;;;;5066599;28;20202;-45
2023/06/07 07:58:50;;;;;;;10.00;4.80;;;25.90;47.10;;;;;;5064230;28;20228;-45
2023/06/07 08:01:22;;;;;;;8.30;4.60;;;25.90;47.20;;;;;;5047357;28;20205;-45
2023/06/07 08:03:53;;;;;;;10.27;4.10;;;26.00;46.80;;;;;;5065974;28;20197;-44
2023/06/07 08:06:23;;;;;;;9.67;3.90;;;26.00;46.70;;;;;;5056597;28;20198;-44
2023/06/07 08:08:53;;;;;;;8.07;4.17;;;26.00;46.60;;;;;;5058895;28;20402;-45
2023/06/07 08:11:30;;;;;;;10.83;4.73;;;26.00;46.10;;;;;;5063443;28;20188;-44
2023/06/07 08:14:01;;;;;;;7.80;4.17;;;25.90;45.90;;;;;;5057719;28;20639;-44
2023/06/07 08:16:31;;;;;;;6.63;4.30;;;25.80;46.10;;;;;;5046550;28;20209;-45
2023/06/07 08:19:06;;;;;;;9.33;3.80;;;25.80;46.80;;;;;;5064022;28;20240;-45
2023/06/07 08:21:38;;;;;;;6.17;3.90;;;25.80;47.00;;;;;;5061355;28;20200;-45
2023/06/07 08:24:11;;;;;;;7.73;4.00;;;25.80;47.70;;;;;;5060240;28;20210;-45
2023/06/07 08:26:45;;;;;;;6.77;4.10;;;25.80;48.00;;;;;;5061762;28;20553;-45
2023/06/07 08:29:13;;;;;;;8.97;4.47;;;25.70;48.20;;;;;;5045306;28;20279;-46
2023/06/07 08:31:45;;;;;;;8.33;4.10;;;25.70;48.20;;;;;;5062977;28;20225;-44
2023/06/07 08:34:13;;;;;;;9.93;3.80;;;25.70;48.20;;;;;;5057722;28;20221;-45
2023/06/07 08:36:42;;;;;;;8.03;3.77;;;25.70;48.30;;;;;;5050705;28;20209;-46
2023/06/07 08:39:12;;;;;;;9.10;3.93;;;25.60;48.20;;;;;;5055894;28;20246;-46
2023/06/07 08:41:40;;;;;;;8.07;3.70;;;25.60;48.10;;;;;;5053345;28;21607;-45
2023/06/07 08:44:08;;;;;;;9.87;3.80;;;25.60;48.30;;;;;;5066512;28;20233;-45
2023/06/07 08:46:40;;;;;;;5.33;3.30;;;25.60;48.40;;;;;;5062123;28;20863;-45
2023/06/07 08:49:11;;;;;;;4.13;3.63;;;25.60;48.50;;;;;;5062028;28;20206;-46
2023/06/07 08:51:42;;;;;;;4.87;3.33;;;25.50;48.70;;;;;;5050096;28;20202;-45
2023/06/07 08:54:27;;;;;;;6.70;3.27;;;25.50;48.60;;;;;;5045225;28;20191;-45
2023/06/07 08:57:19;;;;;;;5.30;2.87;;;25.40;48.40;;;;;;5063059;28;20196;-45
2023/06/07 08:59:50;;;;;;;6.63;3.70;;;25.40;48.40;;;;;;5056324;28;20243;-45
2023/06/07 09:02:31;;;;;;;6.83;2.97;;;25.40;48.70;;;;;;5042294;28;20289;-45
2023/06/07 09:05:07;;;;;;;4.37;3.67;;;25.40;48.60;;;;;;5058581;28;20205;-44
2023/06/07 09:07:45;;;;;;;5.50;2.93;;;25.40;48.80;;;;;;5066949;28;20210;-46
2023/06/07 09:10:20;;;;;;;4.93;3.17;;;25.40;48.80;;;;;;5060261;28;20197;-44
2023/06/07 09:12:52;;;;;;;6.47;3.20;;;25.40;48.80;;;;;;5065066;28;20196;-46
2023/06/07 09:15:32;;;;;;;6.77;3.37;;;25.40;48.90;;;;;;5059965;28;20209;-45
2023/06/07 09:18:04;;;;;;;4.23;3.23;;;25.40;48.90;;;;;;5062693;28;20217;-45
2023/06/07 09:20:37;;;;;;;5.23;3.43;;;25.30;48.80;;;;;;5062489;28;20613;-45
2023/06/07 09:23:14;;;;;;;5.00;3.10;;;25.30;48.90;;;;;;5069616;28;20320;-45
2023/06/07 09:25:57;;;;;;;4.50;2.90;;;25.30;48.90;;;;;;5048779;28;20594;-46
2023/06/07 09:28:39;;;;;;;4.97;3.37;;;25.30;48.90;;;;;;5063948;28;20285;-45
2023/06/07 09:31:11;;;;;;;6.57;3.70;;;25.30;48.90;;;;;;5068829;28;20190;-45
2023/06/07 09:33:40;;;;;;;3.67;2.97;;;25.20;48.90;;;;;;5035287;28;20201;-47
2023/06/07 09:36:13;;;;;;;4.30;3.20;;;25.20;48.90;;;;;;5064208;28;20193;-46
2023/06/07 09:38:45;;;;;;;4.70;3.40;;;25.30;49.10;;;;;;5062653;28;20237;-46
2023/06/07 09:41:14;;;;;;;4.27;3.27;;;25.30;49.10;;;;;;5069676;28;20233;-45
2023/06/07 09:43:51;;;;;;;3.87;2.50;;;25.30;49.10;;;;;;5059170;28;20640;-44
2023/06/07 09:46:21;;;;;;;4.50;3.03;;;25.20;49.00;;;;;;5064601;28;20582;-44
2023/06/07 09:48:53;;;;;;;4.83;3.13;;;25.20;49.00;;;;;;5056651;28;20222;-44
2023/06/07 09:51:27;;;;;;;5.03;3.00;;;25.20;49.00;;;;;;5054648;28;20202;-45
2023/06/07 09:54:05;;;;;;;5.00;3.27;;;25.20;49.00;;;;;;5056927;28;20207;-46
2023/06/07 09:56:42;;;;;;;6.20;3.17;;;25.20;49.00;;;;;;5038815;28;20199;-46
2023/06/07 09:59:18;;;;;;;2.87;2.43;;;25.20;48.90;;;;;;5061847;28;20291;-45
2023/06/07 10:01:54;;;;;;;3.60;3.23;;;25.20;49.00;;;;;;5063545;28;20218;-45
2023/06/07 10:04:25;;;;;;;5.07;3.20;;;25.20;48.90;;;;;;5075470;28;20217;-45
2023/06/07 10:07:00;;;;;;;5.03;3.30;;;25.20;48.90;;;;;;5054117;28;20182;-44
2023/06/07 10:09:45;;;;;;;4.40;2.73;;;25.20;48.90;;;;;;5054282;28;20281;-44
2023/06/07 10:12:19;;;;;;;4.20;2.80;;;25.20;49.00;;;;;;5053119;28;20204;-44
2023/06/07 10:14:54;;;;;;;3.30;2.80;;;25.20;49.00;;;;;;5043429;28;20233;-45
2023/06/07 10:17:51;;;;;;;4.70;2.83;;;25.20;49.50;;;;;;5036265;28;20221;-44
2023/06/07 10:20:29;;;;;;;3.80;2.97;;;25.20;49.00;;;;;;5064220;28;20204;-45
2023/06/07 10:23:07;;;;;;;4.67;2.90;;;25.20;49.70;;;;;;5068972;28;20201;-45
2023/06/07 10:26:01;;;;;;;3.80;2.70;;;25.20;49.10;;;;;;5053213;28;20214;-45
2023/06/07 10:28:39;;;;;;;3.83;2.73;;;25.20;49.10;;;;;;5062999;28;20615;-45
2023/06/07 10:31:13;;;;;;;3.53;2.57;;;25.20;49.20;;;;;;5066425;28;20549;-45
2023/06/07 10:33:48;;;;;;;3.00;2.70;;;25.20;49.20;;;;;;5060805;28;20591;-44
2023/06/07 10:36:23;;;;;;;3.47;2.50;;;25.20;49.10;;;;;;5056592;28;20383;-45
2023/06/07 10:38:51;;;;;;;3.67;2.87;;;25.20;49.20;;;;;;5041605;28;20631;-44
2023/06/07 10:41:23;;;;;;;3.73;2.80;;;25.20;49.30;;;;;;5052979;28;20197;-45
2023/06/07 10:43:51;;;;;;;4.00;2.70;;;25.20;49.20;;;;;;5056415;28;20257;-44
2023/06/07 10:46:24;;;;;;;3.40;2.70;;;25.20;49.20;;;;;;5057045;28;20198;-45
2023/06/07 10:48:56;;;;;;;3.37;2.47;;;25.20;49.30;;;;;;5051170;28;20222;-45
2023/06/07 10:51:51;;;;;;;3.20;2.53;;;25.20;49.30;;;;;;5052164;28;20200;-45
2023/06/07 10:54:38;;;;;;;5.17;2.90;;;25.20;49.30;;;;;;5062196;28;20711;-45
2023/06/07 10:57:10;;;;;;;3.30;2.60;;;25.20;49.40;;;;;;5051796;28;20474;-45
2023/06/07 10:59:39;;;;;;;4.30;3.10;;;25.20;49.50;;;;;;5068495;28;20243;-45
2023/06/07 11:02:26;;;;;;;4.47;3.27;;;25.10;49.50;;;;;;5043592;28;20206;-46
2023/06/07 11:04:58;;;;;;;4.70;3.10;;;25.20;49.50;;;;;;5063487;28;20296;-45
2023/06/07 11:07:32;;;;;;;2.90;2.70;;;25.10;49.50;;;;;;5056641;28;20209;-45
2023/06/07 11:10:18;;;;;;;3.30;2.53;;;25.10;49.40;;;;;;5068289;28;20197;-45
2023/06/07 11:12:57;;;;;;;3.17;2.60;;;25.10;49.50;;;;;;5059160;28;20198;-44
2023/06/07 11:15:36;;;;;;;3.97;2.83;;;25.10;49.50;;;;;;5051761;28;20202;-44
2023/06/07 11:18:11;;;;;;;3.13;2.80;;;25.10;49.60;;;;;;5048854;28;20213;-44
2023/06/07 11:20:49;;;;;;;3.93;2.87;;;25.10;49.60;;;;;;5046490;28;20194;-45
2023/06/07 11:23:35;;;;;;;4.37;3.10;;;25.10;49.60;;;;;;5043322;28;20193;-44
2023/06/07 11:26:12;;;;;;;4.60;3.23;;;25.10;49.60;;;;;;5048254;28;20214;-45
2023/06/07 11:28:42;;;;;;;4.63;3.20;;;25.10;49.60;;;;;;5045939;28;20676;-45
2023/06/07 11:31:13;;;;;;;3.60;3.00;;;25.10;49.60;;;;;;5063750;28;20189;-45
2023/06/07 11:33:44;;;;;;;3.93;3.00;;;25.10;49.60;;;;;;5039389;28;20202;-45
2023/06/07 11:36:14;;;;;;;3.20;2.70;;;25.10;49.60;;;;;;5058200;28;20509;-44
2023/06/07 11:38:51;;;;;;;2.97;2.67;;;25.10;49.60;;;;;;5050222;28;20431;-45
2023/06/07 11:41:26;;;;;;;4.77;3.23;;;25.20;49.60;;;;;;5031107;28;20675;-45
2023/06/07 11:44:09;;;;;;;3.27;2.63;;;25.20;49.60;;;;;;5051413;28;20628;-45
2023/06/07 11:46:41;;;;;;;3.57;2.77;;;25.20;49.60;;;;;;5029036;28;20198;-44
2023/06/07 11:49:12;;;;;;;3.93;2.60;;;25.20;49.60;;;;;;5042504;28;20211;-45
2023/06/07 11:51:48;;;;;;;4.20;3.10;;;25.20;49.60;;;;;;5031511;28;20194;-44
2023/06/07 11:54:32;;;;;;;3.13;2.83;;;25.20;49.70;;;;;;5017694;28;20562;-44
2023/06/07 11:57:08;;;;;;;3.50;2.60;;;25.20;49.70;;;;;;5033007;28;20211;-44
2023/06/07 11:59:44;;;;;;;3.70;3.23;;;25.20;49.70;;;;;;5034875;28;20230;-45
2023/06/07 12:02:15;;;;;;;4.73;3.23;;;25.20;49.80;;;;;;5030664;28;20211;-45
2023/06/07 12:04:47;;;;;;;5.40;3.10;;;25.10;49.70;;;;;;5033887;28;20199;-45
2023/06/07 12:07:28;;;;;;;3.33;2.93;;;25.20;49.70;;;;;;5037854;28;20199;-46
2023/06/07 12:09:58;;;;;;;3.87;3.07;;;25.20;49.70;;;;;;5022297;28;20201;-45
2023/06/07 12:12:32;;;;;;;6.27;3.37;;;25.20;49.70;;;;;;5041018;28;20221;-46
2023/06/07 12:15:09;;;;;;;3.70;2.67;;;25.20;49.60;;;;;;5039692;28;20791;-46
2023/06/07 12:17:49;;;;;;;2.87;2.50;;;25.20;49.70;;;;;;5047044;28;20198;-46
2023/06/07 12:20:21;;;;;;;4.97;3.10;;;25.20;49.70;;;;;;5045174;28;20734;-45
2023/06/07 12:22:53;;;;;;;4.83;3.43;;;25.20;49.70;;;;;;5018569;28;20199;-45
2023/06/07 12:25:25;;;;;;;3.37;3.00;;;25.20;49.60;;;;;;5046359;28;20202;-44
2023/06/07 12:27:57;;;;;;;4.13;3.23;;;25.20;49.70;;;;;;5042995;28;20260;-45
2023/06/07 12:30:47;;;;;;;4.17;3.10;;;25.20;49.70;;;;;;5045316;28;20201;-44
2023/06/07 12:33:28;;;;;;;3.73;3.10;;;25.20;49.80;;;;;;5041856;28;20647;-44
2023/06/07 12:35:58;;;;;;;3.67;3.07;;;25.20;49.70;;;;;;5027894;28;20551;-44
2023/06/07 12:38:47;;;;;;;4.47;2.87;;;25.20;49.80;;;;;;5044546;28;20226;-44
2023/06/07 12:41:18;;;;;;;4.33;3.00;;;25.20;49.80;;;;;;5033324;28;20195;-43
2023/06/07 12:43:48;;;;;;;3.67;2.93;;;25.20;49.90;;;;;;5058471;28;20234;-44
2023/06/07 12:46:18;;;;;;;3.57;2.87;;;25.20;49.80;;;;;;5053902;28;20198;-44
2023/06/07 12:48:49;;;;;;;4.93;3.30;;;25.20;49.70;;;;;;5064442;28;20189;-45
2023/06/07 12:51:21;;;;;;;5.10;2.90;;;25.20;49.70;;;;;;5074389;28;20228;-44
2023/06/07 12:53:52;;;;;;;4.50;3.03;;;25.30;49.80;;;;;;5071321;28;20200;-44
2023/06/07 12:56:25;;;;;;;4.27;2.93;;;25.30;49.80;;;;;;5049816;28;20192;-44
2023/06/07 12:58:56;;;;;;;3.67;2.77;;;25.30;49.80;;;;;;5066159;28;20546;-44
2023/06/07 13:01:29;;;;;;;5.37;3.27;;;25.30;49.90;;;;;;5056157;28;20284;-44
2023/06/07 13:04:01;;;;;;;4.90;3.13;;;25.30;49.90;;;;;;5067881;28;20212;-44
2023/06/07 13:06:31;;;;;;;3.70;2.77;;;25.30;49.80;;;;;;5044277;28;20214;-44
2023/06/07 13:09:12;;;;;;;4.10;2.80;;;25.30;49.80;;;;;;5067241;28;20276;-44
2023/06/07 13:11:44;;;;;;;3.77;2.97;;;25.30;49.90;;;;;;5063705;28;20229;-45
2023/06/07 13:14:12;;;;;;;4.17;3.00;;;25.40;49.90;;;;;;5060176;28;20637;-44
2023/06/07 13:16:43;;;;;;;3.47;3.17;;;25.40;50.00;;;;;;5062582;28;20198;-44
2023/06/07 13:19:13;;;;;;;5.20;3.50;;;25.40;50.00;;;;;;5042294;28;20238;-45